createdAt,value
2022-10-05T00:00:35.972Z,86.99
2022-10-05T00:03:10.018Z,86.87
2022-10-05T00:05:36.541Z,87.04
2022-10-05T00:08:14.019Z,86.93
2022-10-05T00:10:43.744Z,86.79
2022-10-05T00:13:25.102Z,86.66
2022-10-05T00:15:57.924Z,86.98
2022-10-05T00:18:24.370Z,87.07
2022-10-05T00:20:50.772Z,87.16
2022-10-05T00:23:24.917Z,87.21
2022-10-05T00:25:51.592Z,87.20
2022-10-05T00:28:30.374Z,87.15
2022-10-05T00:30:58.390Z,87.30
2022-10-05T00:33:25.758Z,87.17
2022-10-05T00:35:52.202Z,87.32
2022-10-05T00:38:18.597Z,87.64
2022-10-05T00:41:02.384Z,87.65
2022-10-05T00:44:15.897Z,87.98
2022-10-05T00:47:02.658Z,87.85
2022-10-05T00:49:50.553Z,87.87
2022-10-05T00:52:32.030Z,87.99
2022-10-05T00:55:07.715Z,87.93
2022-10-05T00:57:52.667Z,88.04
2022-10-05T01:00:23.270Z,88.00
2022-10-05T01:02:55.733Z,87.95
2022-10-05T01:05:40.987Z,87.85
2022-10-05T01:08:16.377Z,87.82
2022-10-05T01:10:57.733Z,87.94
2022-10-05T01:13:32.809Z,88.04
2022-10-05T01:16:30.876Z,88.07
2022-10-05T01:19:19.700Z,88.35
2022-10-05T01:22:31.679Z,88.25
2022-10-05T01:25:23.192Z,88.22
2022-10-05T01:27:55.639Z,88.05
2022-10-05T01:30:23.095Z,88.17
2022-10-05T01:33:04.946Z,88.53
2022-10-05T01:35:46.252Z,88.67
2022-10-05T01:38:43.835Z,88.37
2022-10-05T01:41:30.783Z,88.56
2022-10-05T01:44:15.331Z,88.80
2022-10-05T01:47:03.171Z,88.92
2022-10-05T01:49:41.225Z,88.90
2022-10-05T01:52:35.447Z,88.89
2022-10-05T01:55:15.464Z,89.05
2022-10-05T01:58:02.817Z,89.12
2022-10-05T02:00:36.179Z,89.39
2022-10-05T02:03:14.060Z,89.66
2022-10-05T02:06:01.866Z,89.87
2022-10-05T02:09:08.427Z,89.84
2022-10-05T02:11:38.423Z,90.14
2022-10-05T02:14:12.956Z,90.27
2022-10-05T02:16:41.229Z,90.27
2022-10-05T02:19:18.058Z,90.29
2022-10-05T02:21:48.096Z,90.37
2022-10-05T02:24:23.633Z,90.38
2022-10-05T02:26:52.777Z,90.20
2022-10-05T02:29:23.362Z,90.17
2022-10-05T02:32:12.647Z,90.19
2022-10-05T02:34:41.732Z,90.15
2022-10-05T02:37:43.430Z,90.11
2022-10-05T02:40:14.064Z,90.31
2022-10-05T02:42:43.270Z,90.54
2022-10-05T02:45:27.355Z,90.69
2022-10-05T02:48:08.734Z,90.68
2022-10-05T02:50:50.110Z,90.72
2022-10-05T02:53:34.675Z,90.66
2022-10-05T02:56:36.275Z,90.85
2022-10-05T02:59:26.062Z,90.92
2022-10-05T03:02:14.791Z,90.97
2022-10-05T03:04:50.976Z,91.05
2022-10-05T03:07:26.163Z,91.11
2022-10-05T03:10:00.929Z,91.37
2022-10-05T03:12:39.480Z,91.32
2022-10-05T03:15:43.708Z,91.33
2022-10-05T03:18:23.920Z,91.25
2022-10-05T03:21:03.102Z,91.28
2022-10-05T03:23:50.977Z,91.07
2022-10-05T03:26:23.657Z,90.80
2022-10-05T03:29:06.214Z,90.56
2022-10-05T03:31:46.533Z,90.25
2022-10-05T03:34:24.805Z,90.06
2022-10-05T03:36:56.928Z,89.98
2022-10-05T03:39:29.333Z,89.97
2022-10-05T03:42:14.642Z,90.00
2022-10-05T03:45:12.813Z,90.06
2022-10-05T03:47:46.570Z,90.00
2022-10-05T03:50:28.270Z,90.03
2022-10-05T03:53:03.777Z,90.12
2022-10-05T03:55:44.125Z,90.12
2022-10-05T03:58:18.441Z,90.01
2022-10-05T04:00:49.322Z,89.93
2022-10-05T04:03:29.004Z,90.07
2022-10-05T04:06:00.908Z,89.96
2022-10-05T04:08:47.906Z,89.91
2022-10-05T04:11:23.354Z,89.96
2022-10-05T04:14:01.020Z,90.10
2022-10-05T04:16:45.727Z,90.14
2022-10-05T04:19:23.427Z,90.17
2022-10-05T04:21:59.244Z,90.23
2022-10-05T04:24:44.039Z,90.28
2022-10-05T04:27:20.286Z,90.39
2022-10-05T04:29:58.268Z,90.67
2022-10-05T04:32:35.433Z,90.78
2022-10-05T04:35:39.192Z,90.77
2022-10-05T04:38:11.770Z,90.57
2022-10-05T04:41:07.781Z,90.38
2022-10-05T04:44:12.079Z,90.21
2022-10-05T04:47:00.295Z,90.07
2022-10-05T04:49:38.619Z,89.99
2022-10-05T04:52:14.241Z,89.92
2022-10-05T04:54:55.969Z,89.81
2022-10-05T04:57:49.032Z,89.47
2022-10-05T05:00:24.727Z,89.36
2022-10-05T05:03:09.875Z,89.34
2022-10-05T05:06:15.262Z,89.43
2022-10-05T05:08:56.942Z,89.42
2022-10-05T05:12:00.780Z,89.23
2022-10-05T05:14:52.181Z,89.15
2022-10-05T05:17:37.340Z,88.98
2022-10-05T05:20:22.506Z,88.71
2022-10-05T05:22:57.346Z,88.85
2022-10-05T05:25:33.622Z,88.71
2022-10-05T05:28:27.153Z,88.74
2022-10-05T05:31:02.765Z,88.58
2022-10-05T05:33:40.691Z,88.57
2022-10-05T05:36:10.089Z,88.55
2022-10-05T05:39:18.070Z,88.60
2022-10-05T05:42:10.157Z,88.63
2022-10-05T05:44:50.476Z,88.58
2022-10-05T05:47:23.959Z,88.45
2022-10-05T05:49:50.428Z,88.42
2022-10-05T05:52:17.032Z,88.70
2022-10-05T05:54:56.895Z,88.43
2022-10-05T05:57:29.908Z,88.31
2022-10-05T06:00:03.647Z,88.30
2022-10-05T06:02:40.556Z,88.28
2022-10-05T06:05:19.849Z,88.20
2022-10-05T06:07:46.663Z,88.14
2022-10-05T06:10:26.371Z,88.06
2022-10-05T06:13:00.855Z,87.86
2022-10-05T06:15:43.504Z,87.69
2022-10-05T06:18:13.532Z,87.73
2022-10-05T06:20:50.221Z,87.44
2022-10-05T06:23:35.675Z,87.27
2022-10-05T06:26:41.030Z,87.19
2022-10-05T06:32:45.042Z,86.81
2022-10-05T06:35:36.341Z,86.70
2022-10-05T06:38:08.742Z,86.48
2022-10-05T06:40:51.595Z,86.37
2022-10-05T06:43:28.256Z,86.20
2022-10-05T06:46:14.198Z,86.01
2022-10-05T06:48:52.726Z,85.69
2022-10-05T06:51:41.550Z,85.35
2022-10-05T06:54:45.571Z,85.25
2022-10-05T06:57:36.741Z,85.07
2022-10-05T07:00:24.954Z,84.87
2022-10-05T07:03:09.909Z,84.51
2022-10-05T07:05:42.570Z,84.29
2022-10-05T07:08:18.025Z,84.20
2022-10-05T07:10:58.726Z,84.29
2022-10-05T07:14:02.293Z,83.97
2022-10-05T07:16:38.258Z,83.66
2022-10-05T07:19:15.185Z,83.67
2022-10-05T07:21:51.555Z,83.53
2022-10-05T07:24:33.219Z,83.33
2022-10-05T07:27:19.892Z,83.28
2022-10-05T07:29:59.624Z,83.16
2022-10-05T07:32:50.849Z,83.03
2022-10-05T07:35:55.767Z,83.15
2022-10-05T07:38:30.979Z,83.12
2022-10-05T07:41:06.205Z,82.89
2022-10-05T07:44:12.899Z,82.86
2022-10-05T07:46:54.631Z,82.61
2022-10-05T07:49:34.203Z,82.51
2022-10-05T07:52:05.382Z,82.46
2022-10-05T07:55:06.383Z,82.24
2022-10-05T07:57:44.971Z,82.29
2022-10-05T08:00:20.067Z,82.07
2022-10-05T08:03:01.314Z,81.93
2022-10-05T08:05:32.777Z,82.11
2022-10-05T08:08:13.221Z,82.00
2022-10-05T08:10:50.265Z,82.01
2022-10-05T08:13:24.797Z,81.84
2022-10-05T08:15:55.886Z,81.96
2022-10-05T08:18:52.841Z,81.73
2022-10-05T08:21:27.873Z,81.53
2022-10-05T08:24:12.941Z,81.29
2022-10-05T08:26:48.099Z,81.44
2022-10-05T08:29:40.841Z,81.15
2022-10-05T08:32:29.699Z,80.99
2022-10-05T08:35:20.927Z,80.78
2022-10-05T08:37:48.992Z,80.52
2022-10-05T08:40:28.625Z,80.45
2022-10-05T08:43:03.892Z,80.40
2022-10-05T08:46:08.059Z,80.38
2022-10-05T08:48:34.476Z,80.10
2022-10-05T08:51:00.875Z,79.96
2022-10-05T08:53:58.391Z,79.78
2022-10-05T08:57:02.073Z,79.45
2022-10-05T08:59:49.799Z,79.06
2022-10-05T09:02:28.090Z,79.13
2022-10-05T09:04:58.029Z,78.92
2022-10-05T09:07:38.808Z,79.00
2022-10-05T09:10:07.935Z,78.75
2022-10-05T09:12:56.390Z,78.10
2022-10-05T09:16:09.067Z,77.88
2022-10-05T09:18:56.742Z,77.72
2022-10-05T09:21:43.839Z,76.94
2022-10-05T09:24:13.378Z,76.71
2022-10-05T09:26:52.054Z,76.27
2022-10-05T09:29:54.414Z,76.14
2022-10-05T09:32:30.279Z,75.67
2022-10-05T09:35:31.102Z,75.50
2022-10-05T09:38:17.188Z,74.39
2022-10-05T09:40:59.908Z,73.21
2022-10-05T09:44:05.209Z,72.64
2022-10-05T09:46:53.382Z,71.50
2022-10-05T09:50:07.973Z,69.99
2022-10-05T09:53:01.636Z,68.81
2022-10-05T09:55:47.125Z,68.59
2022-10-05T09:58:33.239Z,68.66
2022-10-05T10:01:33.603Z,69.85
2022-10-05T10:04:41.743Z,71.11
2022-10-05T10:07:27.236Z,71.32
2022-10-05T10:10:02.980Z,71.14
2022-10-05T10:12:57.134Z,70.94
2022-10-05T10:15:52.465Z,69.46
2022-10-05T10:18:54.529Z,69.59
2022-10-05T10:21:39.597Z,68.81
2022-10-05T10:24:15.929Z,70.01
2022-10-05T10:27:02.547Z,69.18
2022-10-05T10:29:51.147Z,68.28
2022-10-05T10:32:56.855Z,68.93
2022-10-05T10:35:36.401Z,69.63
2022-10-05T10:38:17.269Z,69.08
2022-10-05T10:41:11.705Z,69.64
2022-10-05T10:43:57.434Z,67.49
2022-10-05T10:46:53.874Z,65.03
2022-10-05T10:49:42.144Z,63.57
2022-10-05T10:52:31.171Z,61.93
2022-10-05T10:55:06.905Z,63.70
2022-10-05T10:57:54.665Z,62.63
2022-10-05T11:00:29.162Z,62.21
2022-10-05T11:03:28.118Z,62.18
2022-10-05T11:06:09.820Z,58.59
2022-10-05T11:08:55.347Z,59.91
2022-10-05T11:11:43.595Z,59.18
2022-10-05T11:14:38.007Z,60.25
2022-10-05T11:17:23.279Z,60.55
2022-10-05T11:20:05.075Z,61.29
2022-10-05T11:23:04.238Z,61.56
2022-10-05T11:25:37.359Z,58.23
2022-10-05T11:28:15.844Z,59.27
2022-10-05T11:31:05.211Z,59.96
2022-10-05T11:33:56.175Z,60.03
2022-10-05T11:36:40.753Z,58.66
2022-10-05T11:39:44.785Z,59.17
2022-10-05T11:42:33.576Z,57.64
2022-10-05T11:45:21.549Z,54.60
2022-10-05T11:48:16.187Z,54.68
2022-10-05T11:51:16.631Z,56.16
2022-10-05T11:53:57.523Z,57.64
2022-10-05T11:56:40.849Z,56.36
2022-10-05T11:59:18.877Z,54.85
2022-10-05T12:01:52.503Z,54.93
2022-10-05T12:05:03.332Z,54.00
2022-10-05T12:07:38.604Z,53.53
2022-10-05T12:10:28.813Z,54.44
2022-10-05T12:13:35.526Z,52.78
2022-10-05T12:16:22.597Z,53.06
2022-10-05T12:19:01.335Z,54.63
2022-10-05T12:21:46.537Z,53.51
2022-10-05T12:24:27.119Z,52.70
2022-10-05T12:27:06.127Z,52.67
2022-10-05T12:29:53.446Z,53.66
2022-10-05T12:32:43.668Z,53.89
2022-10-05T12:35:43.634Z,53.96
2022-10-05T12:38:31.920Z,53.72
2022-10-05T12:41:19.632Z,52.81
2022-10-05T12:43:55.784Z,54.05
2022-10-05T12:46:39.609Z,53.93
2022-10-05T12:49:22.650Z,53.64
2022-10-05T12:52:01.647Z,53.44
2022-10-05T12:54:45.866Z,53.43
2022-10-05T12:57:22.697Z,53.74
2022-10-05T13:00:00.073Z,53.03
2022-10-05T13:02:34.236Z,54.11
2022-10-05T13:05:19.929Z,53.96
2022-10-05T13:08:12.772Z,53.34
2022-10-05T13:10:48.183Z,52.69
2022-10-05T13:13:51.091Z,53.52
2022-10-05T13:16:29.370Z,54.08
2022-10-05T13:19:17.394Z,53.72
2022-10-05T13:21:49.704Z,53.38
2022-10-05T13:24:23.953Z,53.57
2022-10-05T13:27:08.366Z,54.13
2022-10-05T13:29:40.125Z,54.34
2022-10-05T13:32:16.357Z,54.34
2022-10-05T13:35:11.762Z,54.20
2022-10-05T13:37:45.008Z,54.74
2022-10-05T13:40:26.746Z,54.57
2022-10-05T13:43:20.117Z,54.87
2022-10-05T13:45:56.990Z,55.75
2022-10-05T13:49:01.757Z,56.36
2022-10-05T13:51:40.569Z,55.24
2022-10-05T13:54:29.394Z,56.17
2022-10-05T13:57:21.637Z,55.72
2022-10-05T13:59:55.652Z,54.45
2022-10-05T14:02:38.406Z,55.43
2022-10-05T14:05:23.561Z,55.10
2022-10-05T14:07:54.574Z,55.64
2022-10-05T14:10:43.795Z,55.90
2022-10-05T14:13:26.610Z,56.10
2022-10-05T14:16:04.728Z,56.40
2022-10-05T14:18:34.058Z,55.80
2022-10-05T14:21:12.698Z,55.66
2022-10-05T14:23:39.418Z,56.72
2022-10-05T14:26:25.713Z,57.10
2022-10-05T14:29:03.501Z,58.25
2022-10-05T14:31:37.253Z,57.38
2022-10-05T14:34:27.744Z,57.60
2022-10-05T14:37:19.264Z,58.01
2022-10-05T14:39:48.654Z,57.72
2022-10-05T14:42:27.049Z,56.94
2022-10-05T14:45:11.755Z,56.93
2022-10-05T14:48:00.045Z,57.85
2022-10-05T14:50:29.642Z,56.75
2022-10-05T14:53:11.382Z,56.50
2022-10-05T14:55:47.106Z,56.46
2022-10-05T14:58:42.825Z,56.89
2022-10-05T15:01:32.137Z,56.61
2022-10-05T15:04:34.356Z,56.55
2022-10-05T15:07:38.908Z,56.32
2022-10-05T15:10:50.008Z,56.75
2022-10-05T15:13:20.247Z,57.13
2022-10-05T15:16:11.537Z,57.52
2022-10-05T15:18:43.689Z,56.90
2022-10-05T15:21:42.361Z,57.85
2022-10-05T15:24:17.289Z,57.17
2022-10-05T15:27:03.437Z,57.73
2022-10-05T15:29:38.597Z,58.11
2022-10-05T15:32:23.759Z,57.72
2022-10-05T15:35:27.044Z,58.51
2022-10-05T15:37:59.694Z,58.31
2022-10-05T15:40:38.808Z,58.60
2022-10-05T15:43:16.592Z,59.11
2022-10-05T15:46:03.091Z,59.72
2022-10-05T15:49:18.098Z,59.65
2022-10-05T15:51:55.163Z,61.23
2022-10-05T15:54:46.656Z,61.29
2022-10-05T15:57:25.018Z,62.29
2022-10-05T15:59:51.402Z,63.16
2022-10-05T16:02:48.385Z,63.50
2022-10-05T16:05:50.028Z,63.49
2022-10-05T16:08:56.344Z,63.65
2022-10-05T16:11:35.761Z,64.27
2022-10-05T16:14:07.870Z,64.66
2022-10-05T16:16:49.790Z,64.75
2022-10-05T16:19:35.439Z,65.35
2022-10-05T16:22:06.550Z,65.43
2022-10-05T16:25:08.903Z,65.21
2022-10-05T16:27:54.789Z,65.45
2022-10-05T16:30:23.834Z,65.26
2022-10-05T16:33:18.424Z,65.27
2022-10-05T16:36:17.120Z,65.55
2022-10-05T16:39:02.385Z,65.51
2022-10-05T16:41:53.891Z,65.74
2022-10-05T16:44:42.924Z,65.80
2022-10-05T16:47:28.699Z,66.07
2022-10-05T16:50:05.278Z,65.67
2022-10-05T16:52:33.858Z,65.46
2022-10-05T16:55:09.167Z,65.01
2022-10-05T16:57:47.267Z,63.85
2022-10-05T17:00:26.467Z,63.32
2022-10-05T17:02:58.778Z,62.43
2022-10-05T17:05:55.761Z,61.92
2022-10-05T17:08:55.588Z,61.70
2022-10-05T17:11:56.425Z,62.25
2022-10-05T17:14:26.038Z,61.75
2022-10-05T17:17:20.640Z,61.77
2022-10-05T17:20:08.792Z,61.94
2022-10-05T17:22:51.392Z,62.12
2022-10-05T17:25:47.859Z,61.93
2022-10-05T17:28:37.405Z,62.94
2022-10-05T17:31:21.855Z,64.67
2022-10-05T17:34:00.327Z,65.74
2022-10-05T17:36:49.496Z,66.33
2022-10-05T17:39:22.135Z,66.39
2022-10-05T17:41:49.021Z,66.78
2022-10-05T17:44:21.349Z,66.98
2022-10-05T17:46:49.362Z,67.14
2022-10-05T17:49:20.481Z,67.06
2022-10-05T17:52:11.617Z,66.94
2022-10-05T17:57:36.910Z,67.22
2022-10-05T18:00:31.460Z,67.17
2022-10-05T18:02:58.255Z,67.38
2022-10-05T18:05:29.173Z,67.37
2022-10-05T18:08:16.614Z,67.23
2022-10-05T18:11:06.493Z,67.08
2022-10-05T18:13:41.493Z,66.89
2022-10-05T18:16:10.438Z,66.78
2022-10-05T18:18:42.985Z,66.46
2022-10-05T18:21:15.692Z,66.22
2022-10-05T18:24:00.167Z,66.07
2022-10-05T18:26:59.374Z,66.14
2022-10-05T18:30:01.093Z,66.21
2022-10-05T18:32:40.602Z,66.11
2022-10-05T18:35:19.908Z,66.08
2022-10-05T18:37:50.974Z,66.15
2022-10-05T18:40:37.075Z,65.79
2022-10-05T18:43:40.668Z,65.55
2022-10-05T18:46:34.510Z,65.50
2022-10-05T18:49:32.212Z,65.59
2022-10-05T18:52:17.118Z,65.23
2022-10-05T18:54:50.967Z,64.63
2022-10-05T18:57:39.102Z,64.49
2022-10-05T19:00:21.098Z,64.53
2022-10-05T19:02:50.480Z,64.55
2022-10-05T19:05:47.502Z,64.66
2022-10-05T19:08:32.887Z,64.65
2022-10-05T19:11:11.655Z,64.08
2022-10-05T19:14:12.604Z,64.18
2022-10-05T19:16:57.664Z,64.50
2022-10-05T19:19:39.512Z,65.21
2022-10-05T19:22:20.093Z,65.69
2022-10-05T19:25:11.589Z,65.43
2022-10-05T19:28:06.116Z,65.37
2022-10-05T19:30:50.839Z,64.77
2022-10-05T19:33:20.458Z,64.87
2022-10-05T19:36:39.592Z,64.88
2022-10-05T19:39:33.658Z,65.40
2022-10-05T19:42:32.645Z,65.58
2022-10-05T19:45:29.358Z,65.61
2022-10-05T19:48:23.307Z,65.87
2022-10-05T19:51:03.576Z,65.68
2022-10-05T19:53:36.431Z,65.84
2022-10-05T19:56:25.507Z,66.08
2022-10-05T19:58:57.665Z,66.18
2022-10-05T20:01:42.997Z,66.22
2022-10-05T20:04:10.499Z,66.25
2022-10-05T20:06:43.010Z,66.01
2022-10-05T20:09:23.760Z,65.99
2022-10-05T20:11:52.172Z,66.40
2022-10-05T20:14:30.007Z,65.76
2022-10-05T20:17:45.143Z,65.93
2022-10-05T20:20:30.760Z,65.76
2022-10-05T20:23:19.420Z,65.91
2022-10-05T20:26:05.824Z,66.03
2022-10-05T20:28:33.485Z,66.01
2022-10-05T20:31:00.134Z,65.84
2022-10-05T20:33:27.628Z,65.74
2022-10-05T20:35:55.626Z,66.07
2022-10-05T20:38:22.634Z,65.96
2022-10-05T20:40:49.199Z,66.20
2022-10-05T20:43:15.631Z,66.30
2022-10-05T20:45:43.168Z,66.25
2022-10-05T20:48:14.198Z,66.37
2022-10-05T20:50:40.750Z,66.58
2022-10-05T20:53:11.775Z,66.33
2022-10-05T20:55:38.611Z,66.06
2022-10-05T20:58:05.148Z,65.91
2022-10-05T21:00:51.596Z,65.98
2022-10-05T21:03:18.703Z,66.16
2022-10-05T21:05:46.470Z,65.94
2022-10-05T21:08:12.871Z,66.11
2022-10-05T21:10:40.018Z,66.09
2022-10-05T21:13:06.472Z,66.17
2022-10-05T21:15:33.006Z,66.27
2022-10-05T21:17:59.446Z,66.26
2022-10-05T21:20:25.983Z,66.15
2022-10-05T21:22:52.359Z,66.46
2022-10-05T21:25:18.731Z,66.49
2022-10-05T21:27:46.707Z,66.56
2022-10-05T21:30:13.624Z,66.67
2022-10-05T21:32:44.149Z,66.85
2022-10-05T21:35:11.092Z,67.05
2022-10-05T21:37:37.608Z,67.20
2022-10-05T21:40:04.623Z,67.18
2022-10-05T21:42:31.424Z,67.34
2022-10-05T21:44:57.848Z,67.43
2022-10-05T21:47:25.417Z,67.26
2022-10-05T21:49:51.943Z,67.36
2022-10-05T21:52:18.704Z,67.61
2022-10-05T21:54:45.297Z,67.36
2022-10-05T21:57:12.595Z,67.50
2022-10-05T21:59:40.208Z,67.48
2022-10-05T22:02:06.661Z,67.54
2022-10-05T22:04:33.056Z,67.46
2022-10-05T22:06:59.665Z,67.62
2022-10-05T22:09:26.199Z,67.65
2022-10-05T22:11:52.632Z,68.46
2022-10-05T22:14:19.126Z,69.02
2022-10-05T22:16:46.010Z,70.38
2022-10-05T22:19:18.524Z,70.96
2022-10-05T22:21:44.957Z,72.50
2022-10-05T22:24:11.696Z,72.49
2022-10-05T22:26:39.808Z,74.06
2022-10-05T22:29:06.332Z,75.71
2022-10-05T22:31:32.908Z,77.40
2022-10-05T22:33:59.417Z,79.41
2022-10-05T22:36:26.119Z,80.80
2022-10-05T22:38:52.477Z,82.41
2022-10-05T22:41:19.446Z,82.78
2022-10-05T22:43:50.597Z,82.45
2022-10-05T22:46:17.751Z,82.41
2022-10-05T22:48:44.279Z,83.29
2022-10-05T22:51:10.723Z,84.33
2022-10-05T22:53:37.437Z,83.95
2022-10-05T22:56:13.938Z,83.12
2022-10-05T22:58:42.073Z,82.92
2022-10-05T23:01:13.851Z,82.27
2022-10-05T23:03:40.810Z,82.30
2022-10-05T23:06:11.257Z,81.37
2022-10-05T23:08:38.882Z,80.79
2022-10-05T23:11:10.189Z,80.78
2022-10-05T23:13:36.762Z,80.38
2022-10-05T23:16:11.738Z,80.42
2022-10-05T23:18:38.182Z,79.74
2022-10-05T23:21:07.414Z,78.46
2022-10-05T23:23:38.473Z,78.24
2022-10-05T23:26:06.891Z,77.82
2022-10-05T23:28:34.265Z,77.30
2022-10-05T23:31:03.119Z,76.94
2022-10-05T23:33:30.455Z,77.71
2022-10-05T23:36:02.144Z,77.63
2022-10-05T23:38:29.831Z,77.06
2022-10-05T23:40:57.905Z,76.75
2022-10-05T23:43:25.001Z,76.86
2022-10-05T23:45:51.392Z,77.90
2022-10-05T23:48:17.868Z,78.33
2022-10-05T23:50:47.967Z,78.43
2022-10-05T23:53:15.440Z,79.47
2022-10-05T23:55:42.949Z,80.72
